Portada
METAR-TAF:

METAR-TAF

Aeropuertos :

Aeropuerto de Innsbruck

Innsbruck, Austria

latitud: 47-16N, longitud: 011-21E, altitud: 581 m

Observación

El informe se hizo hace 35 minutos, a las 08:50 UTC
Viento 4 kt del suroeste, variando entre sur-suroeste y oeste
Temperatura 3°C
Humedad 65%
Presión 1024 hPa
Visibilidad 10 km o más
Escasas nubes a una altura de 8000 ft

METAR: LOWI 070850Z 23004KT 200V260 9999 FEW080 03/M03 Q1024 NOSIG

Hora: 10:25 (09:25 UTC)

Pronóstico

El informe se hizo hace 4 horas y 10 minutos, a las 05:15 UTC
Pronóstico válido del 07 a las 06 UTC al 08 a las 06 UTC
Viento 3 kt con dirección variable
Visibilidad 10 km o más
Nubes dispersas a una altura de 8000 ft
Temporalmente
del 07 a las 18 UTC al 08 a las 06 UTC
lluvia ligera

TAF: LOWI 070515Z 0706/0806 VRB03KT 9999 SCT080 TX10/0715Z TNM03/0706Z TEMPO 0718/0806 -RA

Observaciones y pronósticos meteorológicos de más de 4000 aeropuertos (mensajes METAR y TAF).

Los puntos amarillos y rojos representan las estaciones disponibles.

Ponga el ratón en el punto deseado para ver el nombre de la estación.

Haga clic para ver las observaciones y los pronósticos meteorológicos.

Para cambiar el mapa : haga clic en los botones verdes con una cruz de color negro para hacer un zoom, en el botón verde con un guión para alejar o en las flechas verdes para mapas adyacentes.


METAR-TAF: